Time;durP1;ratioP1;P1;durP2;ratioP2;P2;SDS_P1;SDS_P2;PMS_P1;PMS_P2;Temp;Humidity;BMP_temperature;BMP_pressure;BME280_temperature;BME280_humidity;BME280_pressure;Samples;Min_cycle;Max_cycle;Signal;HPM_P1;HPM_P2
2021/10/11 00:02:22;;;;;;;5.93;5.43;;;;;;;;;;4976488;28;20289;-79
2021/10/11 00:04:49;;;;;;;6.85;5.88;;;;;;;;;;4976516;28;20201;-79
2021/10/11 00:07:17;;;;;;;9.60;6.93;;;;;;;;;;4976627;28;20228;-77
2021/10/11 00:09:45;;;;;;;5.68;5.18;;;;;;;;;;4976501;28;20679;-79
2021/10/11 00:12:18;;;;;;;6.28;5.68;;;;;;;;;;4976857;28;20184;-78
2021/10/11 00:14:45;;;;;;;5.80;5.20;;;;;;;;;;4976508;28;20294;-77
2021/10/11 00:17:14;;;;;;;5.80;4.88;;;;;;;;;;4976529;28;20232;-78
2021/10/11 00:19:43;;;;;;;5.63;4.80;;;;;;;;;;4976348;28;20766;-77
2021/10/11 00:22:11;;;;;;;6.70;5.93;;;;;;;;;;4984643;28;20202;-81
2021/10/11 00:24:38;;;;;;;6.68;5.97;;;;;;;;;;4985872;28;20856;-78
2021/10/11 00:27:06;;;;;;;6.20;5.60;;;;;;;;;;4982987;28;20735;-77
2021/10/11 00:29:33;;;;;;;6.07;5.45;;;;;;;;;;4995168;28;20199;-77
2021/10/11 00:32:03;;;;;;;6.88;5.88;;;;;;;;;;4979780;28;20201;-77
2021/10/11 00:34:32;;;;;;;4.70;4.30;;;;;;;;;;4967815;28;20222;-78
2021/10/11 00:36:59;;;;;;;7.05;6.30;;;;;;;;;;4976374;28;20200;-76
2021/10/11 00:39:26;;;;;;;5.40;4.95;;;;;;;;;;4975763;28;20210;-79
2021/10/11 00:41:54;;;;;;;4.85;4.45;;;;;;;;;;4976001;28;20200;-77
2021/10/11 00:44:21;;;;;;;5.88;5.38;;;;;;;;;;4975741;28;20197;-78
2021/10/11 00:46:49;;;;;;;5.50;5.00;;;;;;;;;;4976146;28;20192;-78
2021/10/11 00:49:16;;;;;;;5.07;4.60;;;;;;;;;;4976017;28;20635;-77
2021/10/11 00:51:45;;;;;;;6.38;5.78;;;;;;;;;;4985160;28;20253;-77
2021/10/11 00:54:13;;;;;;;5.78;4.80;;;;;;;;;;4995304;28;20227;-78
2021/10/11 00:56:41;;;;;;;5.10;4.70;;;;;;;;;;4994439;28;20235;-76
2021/10/11 00:59:09;;;;;;;6.75;6.15;;;;;;;;;;4993573;28;20210;-77
2021/10/11 01:01:36;;;;;;;6.85;6.15;;;;;;;;;;4994971;28;20211;-76
2021/10/11 01:04:06;;;;;;;9.75;7.30;;;;;;;;;;4994008;28;20215;-77
2021/10/11 01:06:34;;;;;;;7.70;6.60;;;;;;;;;;4994738;28;20206;-79
2021/10/11 01:09:03;;;;;;;7.78;6.38;;;;;;;;;;4993490;28;20228;-77
2021/10/11 01:11:30;;;;;;;8.15;7.05;;;;;;;;;;4994432;28;20207;-77
2021/10/11 01:13:58;;;;;;;6.72;5.53;;;;;;;;;;4994601;28;20237;-77
2021/10/11 01:16:25;;;;;;;7.13;6.25;;;;;;;;;;4996256;28;20733;-80
2021/10/11 01:18:53;;;;;;;6.35;5.75;;;;;;;;;;4996487;28;20227;-78
2021/10/11 01:21:22;;;;;;;6.38;5.60;;;;;;;;;;4996061;28;20207;-79
2021/10/11 01:23:49;;;;;;;5.32;4.78;;;;;;;;;;4996019;28;20203;-78
2021/10/11 01:26:17;;;;;;;6.35;5.78;;;;;;;;;;4996036;28;20196;-79
2021/10/11 01:28:44;;;;;;;6.85;5.28;;;;;;;;;;4996058;28;20231;-79
2021/10/11 01:31:11;;;;;;;6.90;6.30;;;;;;;;;;4995837;28;20222;-82
2021/10/11 01:33:39;;;;;;;5.60;5.07;;;;;;;;;;4996306;28;20693;-78
2021/10/11 01:36:07;;;;;;;4.78;4.35;;;;;;;;;;4995578;28;20227;-79
2021/10/11 01:38:35;;;;;;;6.28;5.53;;;;;;;;;;4996397;28;20223;-79
2021/10/11 01:41:03;;;;;;;5.22;4.68;;;;;;;;;;4995644;28;20214;-78
2021/10/11 01:43:30;;;;;;;5.53;5.03;;;;;;;;;;4995640;28;20206;-79
2021/10/11 01:45:58;;;;;;;4.70;4.30;;;;;;;;;;4995391;28;20231;-79
2021/10/11 01:48:25;;;;;;;3.95;3.55;;;;;;;;;;4995446;28;20228;-78
2021/10/11 01:50:52;;;;;;;4.63;4.18;;;;;;;;;;4995499;28;20207;-80
2021/10/11 01:53:20;;;;;;;4.93;4.50;;;;;;;;;;4995837;28;20203;-78
2021/10/11 01:55:48;;;;;;;4.65;4.25;;;;;;;;;;4995678;28;20226;-78
2021/10/11 01:58:16;;;;;;;6.47;5.38;;;;;;;;;;4995487;28;20228;-78
2021/10/11 02:00:43;;;;;;;5.05;4.65;;;;;;;;;;4995766;28;20207;-79
2021/10/11 02:03:10;;;;;;;5.20;4.70;;;;;;;;;;4995772;28;20208;-79
2021/10/11 02:05:38;;;;;;;5.05;4.57;;;;;;;;;;4994850;28;20207;-79
2021/10/11 02:08:06;;;;;;;4.95;4.55;;;;;;;;;;4995353;28;20235;-79
2021/10/11 02:10:33;;;;;;;5.43;4.93;;;;;;;;;;4995239;28;20551;-78
2021/10/11 02:13:02;;;;;;;5.30;4.80;;;;;;;;;;4995146;28;20211;-79
2021/10/11 02:15:30;;;;;;;5.18;4.68;;;;;;;;;;4994092;28;20220;-77
2021/10/11 02:17:57;;;;;;;5.28;4.78;;;;;;;;;;4994501;28;20274;-78
2021/10/11 02:20:25;;;;;;;4.72;4.32;;;;;;;;;;4994141;28;20822;-78
2021/10/11 02:22:53;;;;;;;4.53;4.07;;;;;;;;;;4994475;28;20203;-77
2021/10/11 02:25:20;;;;;;;5.13;4.68;;;;;;;;;;4993326;28;20210;-78
2021/10/11 02:27:47;;;;;;;3.65;3.33;;;;;;;;;;4993506;28;20286;-77
2021/10/11 02:30:16;;;;;;;4.50;4.10;;;;;;;;;;4994151;28;20296;-78
2021/10/11 02:32:44;;;;;;;5.10;4.40;;;;;;;;;;4994233;28;20598;-78
2021/10/11 02:35:11;;;;;;;6.07;5.47;;;;;;;;;;4994295;28;20596;-78
2021/10/11 02:37:39;;;;;;;6.30;5.70;;;;;;;;;;4993945;28;20231;-77
2021/10/11 02:40:08;;;;;;;7.50;5.15;;;;;;;;;;4994053;28;20210;-78
2021/10/11 02:42:35;;;;;;;5.60;4.40;;;;;;;;;;4993711;28;20409;-77
2021/10/11 02:45:04;;;;;;;7.07;6.38;;;;;;;;;;4994447;28;20203;-78
2021/10/11 02:47:33;;;;;;;6.03;5.43;;;;;;;;;;4993967;28;20226;-77
2021/10/11 02:50:00;;;;;;;5.07;4.57;;;;;;;;;;4993878;28;20215;-77
2021/10/11 02:52:31;;;;;;;7.88;5.80;;;;;;;;;;4993822;28;20240;-78
2021/10/11 02:54:59;;;;;;;7.25;6.45;;;;;;;;;;4993816;28;20208;-77
2021/10/11 02:57:26;;;;;;;8.25;7.05;;;;;;;;;;4993476;28;20331;-77
2021/10/11 02:59:54;;;;;;;7.85;6.63;;;;;;;;;;4993567;28;20226;-77
2021/10/11 03:02:21;;;;;;;7.40;6.43;;;;;;;;;;4993773;28;20204;-78
2021/10/11 03:04:50;;;;;;;8.02;6.72;;;;;;;;;;4993705;28;20200;-77
2021/10/11 03:07:18;;;;;;;6.80;6.10;;;;;;;;;;4993094;28;20255;-78
2021/10/11 03:09:46;;;;;;;6.18;4.82;;;;;;;;;;4993657;28;20222;-77
2021/10/11 03:12:13;;;;;;;6.63;6.00;;;;;;;;;;4993916;28;20219;-77
2021/10/11 03:14:41;;;;;;;7.95;7.15;;;;;;;;;;4994164;28;20188;-78
2021/10/11 03:17:09;;;;;;;5.63;5.22;;;;;;;;;;4993909;28;20604;-78
2021/10/11 03:19:36;;;;;;;6.20;5.70;;;;;;;;;;4993532;28;20674;-77
2021/10/11 03:22:05;;;;;;;6.13;5.53;;;;;;;;;;4994115;28;20212;-77
2021/10/11 03:24:33;;;;;;;5.78;5.25;;;;;;;;;;4993453;28;20211;-78
2021/10/11 03:27:01;;;;;;;6.97;5.95;;;;;;;;;;4994048;28;20223;-77
2021/10/11 03:29:28;;;;;;;6.15;5.60;;;;;;;;;;4993779;28;20215;-78
2021/10/11 03:31:56;;;;;;;6.40;5.80;;;;;;;;;;4994494;28;20203;-77
2021/10/11 03:34:24;;;;;;;5.85;5.35;;;;;;;;;;4997245;28;20210;-78
2021/10/11 03:36:51;;;;;;;6.03;5.53;;;;;;;;;;4997345;28;20229;-77
2021/10/11 03:39:20;;;;;;;6.45;5.85;;;;;;;;;;4997771;28;20207;-78
2021/10/11 03:41:47;;;;;;;6.70;6.05;;;;;;;;;;4997875;28;20577;-78
2021/10/11 03:44:15;;;;;;;6.00;5.47;;;;;;;;;;4996990;28;20241;-78
2021/10/11 03:46:42;;;;;;;4.65;4.05;;;;;;;;;;4997427;28;20206;-78
2021/10/11 03:49:09;;;;;;;6.18;5.35;;;;;;;;;;4998102;28;20211;-77
2021/10/11 03:51:37;;;;;;;4.90;4.45;;;;;;;;;;4997720;28;20233;-77
2021/10/11 03:54:04;;;;;;;5.80;5.25;;;;;;;;;;4997298;28;20693;-77
2021/10/11 03:56:33;;;;;;;6.25;5.65;;;;;;;;;;4997788;28;20224;-78
2021/10/11 03:59:01;;;;;;;6.13;5.50;;;;;;;;;;4997137;28;20769;-78
2021/10/11 04:01:28;;;;;;;5.75;5.20;;;;;;;;;;4997329;28;20214;-78
2021/10/11 04:03:56;;;;;;;5.90;5.20;;;;;;;;;;4997264;28;20669;-77
2021/10/11 04:06:23;;;;;;;6.63;5.90;;;;;;;;;;4997586;28;20200;-77
2021/10/11 04:08:51;;;;;;;5.20;4.68;;;;;;;;;;4997159;28;20318;-77
2021/10/11 04:11:24;;;;;;;5.43;4.55;;;;;;;;;;4997258;28;20674;-77
2021/10/11 04:13:55;;;;;;;5.65;4.80;;;;;;;;;;4997869;28;20565;-78
2021/10/11 04:16:23;;;;;;;5.15;4.60;;;;;;;;;;4997137;28;20196;-78
2021/10/11 04:18:50;;;;;;;5.40;4.90;;;;;;;;;;4997437;28;20733;-77
2021/10/11 04:21:18;;;;;;;5.72;5.22;;;;;;;;;;4997346;28;20275;-78
2021/10/11 04:23:45;;;;;;;7.43;5.65;;;;;;;;;;4997306;28;20225;-78
2021/10/11 04:26:13;;;;;;;7.00;5.93;;;;;;;;;;4996824;28;20204;-78
2021/10/11 04:28:41;;;;;;;5.00;4.50;;;;;;;;;;4996674;28;20244;-78
2021/10/11 04:31:09;;;;;;;4.57;4.13;;;;;;;;;;4997097;28;20200;-77
2021/10/11 04:33:37;;;;;;;5.30;4.80;;;;;;;;;;4997323;28;20588;-78
2021/10/11 04:36:05;;;;;;;4.65;4.13;;;;;;;;;;4996874;28;20209;-77
2021/10/11 04:38:32;;;;;;;4.90;4.50;;;;;;;;;;4996876;28;20235;-78
2021/10/11 04:40:59;;;;;;;4.00;3.70;;;;;;;;;;4996701;28;20587;-77
2021/10/11 04:43:27;;;;;;;5.03;4.22;;;;;;;;;;4996769;28;20585;-78
2021/10/11 04:45:54;;;;;;;6.05;5.55;;;;;;;;;;4997023;28;20203;-78
2021/10/11 04:48:23;;;;;;;4.30;3.92;;;;;;;;;;4996783;28;20725;-78
2021/10/11 04:50:50;;;;;;;5.93;5.43;;;;;;;;;;4996940;28;20207;-78
2021/10/11 04:53:18;;;;;;;5.15;4.72;;;;;;;;;;4996797;28;20203;-78
2021/10/11 04:55:45;;;;;;;6.95;6.25;;;;;;;;;;4996229;28;20215;-78
2021/10/11 04:58:12;;;;;;;5.72;5.18;;;;;;;;;;4996445;28;20235;-77
2021/10/11 05:00:40;;;;;;;6.68;5.88;;;;;;;;;;4996684;28;20295;-78
2021/10/11 05:03:07;;;;;;;5.95;5.35;;;;;;;;;;4996589;28;20235;-77
2021/10/11 05:05:36;;;;;;;5.32;4.82;;;;;;;;;;4996266;28;20200;-78
2021/10/11 05:08:05;;;;;;;5.55;5.13;;;;;;;;;;4996500;28;20588;-77
2021/10/11 05:10:33;;;;;;;5.22;4.45;;;;;;;;;;4995830;28;20203;-78
2021/10/11 05:13:00;;;;;;;5.22;4.72;;;;;;;;;;4996270;28;20214;-78
2021/10/11 05:15:28;;;;;;;5.90;5.38;;;;;;;;;;4996607;28;20207;-78
2021/10/11 05:17:56;;;;;;;7.05;6.35;;;;;;;;;;4996241;28;20291;-78
2021/10/11 05:20:25;;;;;;;7.20;6.43;;;;;;;;;;4996076;28;20204;-78
2021/10/11 05:22:54;;;;;;;6.35;5.75;;;;;;;;;;4996005;28;20239;-78
2021/10/11 05:25:21;;;;;;;8.88;8.00;;;;;;;;;;4996013;28;20674;-78
2021/10/11 05:27:48;;;;;;;7.35;6.10;;;;;;;;;;4995780;28;20226;-78
2021/10/11 05:30:15;;;;;;;5.85;5.32;;;;;;;;;;4995561;28;20208;-78
2021/10/11 05:32:44;;;;;;;8.18;6.05;;;;;;;;;;4996323;28;20203;-78
2021/10/11 05:35:12;;;;;;;7.88;7.07;;;;;;;;;;4995831;28;20214;-78
2021/10/11 05:37:40;;;;;;;5.18;4.72;;;;;;;;;;4995553;28;20235;-78
2021/10/11 05:40:10;;;;;;;6.75;6.18;;;;;;;;;;4995806;28;20207;-78
2021/10/11 05:42:39;;;;;;;6.07;5.47;;;;;;;;;;4996317;28;20211;-78
2021/10/11 05:45:08;;;;;;;5.00;4.50;;;;;;;;;;4996262;28;20204;-78
2021/10/11 05:47:36;;;;;;;6.50;5.90;;;;;;;;;;4995796;28;20226;-79
2021/10/11 05:50:05;;;;;;;6.53;5.93;;;;;;;;;;4994967;28;20207;-79
2021/10/11 05:52:32;;;;;;;5.30;4.80;;;;;;;;;;4995895;28;20293;-79
2021/10/11 05:54:59;;;;;;;6.85;6.15;;;;;;;;;;4995351;28;20215;-78
2021/10/11 05:57:28;;;;;;;8.40;6.97;;;;;;;;;;4995958;28;20231;-79
2021/10/11 05:59:55;;;;;;;6.45;5.50;;;;;;;;;;4995480;28;20208;-78
2021/10/11 06:02:23;;;;;;;6.55;5.85;;;;;;;;;;4995395;28;20207;-79
2021/10/11 06:04:50;;;;;;;5.25;4.72;;;;;;;;;;4994938;28;20204;-78
2021/10/11 06:07:18;;;;;;;5.50;5.00;;;;;;;;;;4995700;28;20246;-79
2021/10/11 06:09:45;;;;;;;5.32;4.82;;;;;;;;;;4995480;28;20207;-78
2021/10/11 06:12:12;;;;;;;6.25;5.70;;;;;;;;;;4995643;28;20214;-79
2021/10/11 06:14:43;;;;;;;7.68;6.93;;;;;;;;;;4995128;28;20216;-79
2021/10/11 06:17:10;;;;;;;5.20;4.80;;;;;;;;;;4995544;28;20230;-79
2021/10/11 06:19:38;;;;;;;4.97;4.57;;;;;;;;;;4995711;28;20223;-79
2021/10/11 06:22:05;;;;;;;4.88;4.47;;;;;;;;;;4996336;28;20211;-80
2021/10/11 06:24:32;;;;;;;5.90;5.40;;;;;;;;;;4996869;28;20210;-79
2021/10/11 06:27:03;;;;;;;6.65;6.00;;;;;;;;;;4995762;28;20694;-79
2021/10/11 06:29:30;;;;;;;5.43;4.93;;;;;;;;;;4995482;28;20267;-79
2021/10/11 06:31:59;;;;;;;5.40;4.90;;;;;;;;;;4995188;28;20612;-79
2021/10/11 06:34:26;;;;;;;4.97;4.10;;;;;;;;;;4994579;28;20203;-78
2021/10/11 06:36:54;;;;;;;4.45;4.05;;;;;;;;;;4994818;28;20239;-78
2021/10/11 06:39:21;;;;;;;4.78;4.38;;;;;;;;;;4994871;28;20234;-79
2021/10/11 06:41:49;;;;;;;6.88;5.90;;;;;;;;;;4994905;28;20206;-78
2021/10/11 06:44:17;;;;;;;5.95;5.45;;;;;;;;;;4994339;28;20214;-79
2021/10/11 06:46:45;;;;;;;5.00;4.50;;;;;;;;;;4994724;28;20266;-79
2021/10/11 06:49:14;;;;;;;5.57;4.72;;;;;;;;;;4995221;28;20227;-78
2021/10/11 06:51:42;;;;;;;6.22;5.72;;;;;;;;;;4994085;28;20319;-78
2021/10/11 06:54:09;;;;;;;6.88;6.28;;;;;;;;;;4994653;28;20211;-79
2021/10/11 06:56:37;;;;;;;5.50;5.00;;;;;;;;;;4994369;28;20250;-78
2021/10/11 06:59:04;;;;;;;5.18;4.78;;;;;;;;;;4994830;28;20231;-78
2021/10/11 07:01:32;;;;;;;5.18;4.68;;;;;;;;;;4994514;28;20216;-78
2021/10/11 07:03:59;;;;;;;5.75;5.25;;;;;;;;;;4994711;28;20207;-78
2021/10/11 07:06:28;;;;;;;5.00;4.60;;;;;;;;;;4994880;28;20200;-78
2021/10/11 07:08:55;;;;;;;5.45;4.95;;;;;;;;;;4994137;28;20222;-79
2021/10/11 07:11:23;;;;;;;5.40;5.00;;;;;;;;;;4994508;28;20200;-79
2021/10/11 07:13:50;;;;;;;4.55;4.15;;;;;;;;;;4994603;28;20211;-79
2021/10/11 07:16:18;;;;;;;5.00;4.60;;;;;;;;;;4994798;28;20199;-79
2021/10/11 07:18:45;;;;;;;6.03;5.00;;;;;;;;;;4993957;28;20231;-78
2021/10/11 07:21:13;;;;;;;7.22;6.53;;;;;;;;;;4994028;28;20290;-79
2021/10/11 07:23:41;;;;;;;5.20;4.80;;;;;;;;;;4995056;28;20294;-78
2021/10/11 07:26:09;;;;;;;4.82;4.43;;;;;;;;;;4994069;28;20204;-79
2021/10/11 07:28:37;;;;;;;5.03;4.55;;;;;;;;;;4994520;28;20311;-79
2021/10/11 07:31:04;;;;;;;5.10;4.60;;;;;;;;;;4994625;28;20250;-79
2021/10/11 07:33:32;;;;;;;7.72;7.03;;;;;;;;;;4994583;28;20203;-79
2021/10/11 07:35:59;;;;;;;7.05;6.40;;;;;;;;;;4993972;28;20734;-79
2021/10/11 07:38:27;;;;;;;5.68;5.20;;;;;;;;;;4993633;28;20319;-79
2021/10/11 07:40:57;;;;;;;6.00;5.50;;;;;;;;;;4994690;28;20207;-79
2021/10/11 07:43:24;;;;;;;6.00;5.47;;;;;;;;;;4994302;28;20207;-78
2021/10/11 07:45:52;;;;;;;5.82;5.25;;;;;;;;;;4994212;28;20207;-79
2021/10/11 07:48:19;;;;;;;3.88;3.58;;;;;;;;;;4994229;28;20228;-79
2021/10/11 07:50:47;;;;;;;5.43;4.93;;;;;;;;;;4994193;28;20232;-80
2021/10/11 07:53:14;;;;;;;5.75;5.22;;;;;;;;;;4994117;28;20210;-79
2021/10/11 07:55:42;;;;;;;5.20;4.70;;;;;;;;;;4993676;28;20702;-79
2021/10/11 07:58:11;;;;;;;4.22;3.92;;;;;;;;;;4994173;28;20226;-79
2021/10/11 08:00:38;;;;;;;5.82;5.25;;;;;;;;;;4994187;28;20223;-79
2021/10/11 08:03:06;;;;;;;7.28;6.57;;;;;;;;;;4994397;28;20218;-79
2021/10/11 08:05:33;;;;;;;5.25;4.72;;;;;;;;;;4993962;28;20204;-79
2021/10/11 08:08:00;;;;;;;4.95;4.35;;;;;;;;;;4993881;28;20228;-79
2021/10/11 08:10:28;;;;;;;4.80;4.40;;;;;;;;;;4994398;28;20203;-78
2021/10/11 08:12:55;;;;;;;6.32;5.72;;;;;;;;;;4994656;28;20211;-79
2021/10/11 08:15:24;;;;;;;4.47;4.07;;;;;;;;;;4994563;28;20208;-78
2021/10/11 08:17:53;;;;;;;4.95;4.53;;;;;;;;;;4993726;28;20223;-78
2021/10/11 08:20:21;;;;;;;4.57;4.18;;;;;;;;;;4997482;28;20587;-79
2021/10/11 08:22:48;;;;;;;4.18;3.78;;;;;;;;;;4997959;28;20207;-78
2021/10/11 08:25:16;;;;;;;7.47;6.28;;;;;;;;;;4997499;28;20212;-79
2021/10/11 08:27:44;;;;;;;5.22;4.72;;;;;;;;;;4996833;28;20269;-79
2021/10/11 08:30:12;;;;;;;5.32;4.82;;;;;;;;;;4997187;28;20195;-79
2021/10/11 08:32:40;;;;;;;5.80;5.30;;;;;;;;;;4996782;28;20210;-79
2021/10/11 08:35:09;;;;;;;5.63;5.13;;;;;;;;;;4997086;28;20227;-79
2021/10/11 08:37:36;;;;;;;5.35;4.88;;;;;;;;;;4997182;28;20223;-79
2021/10/11 08:40:05;;;;;;;4.90;4.50;;;;;;;;;;4996660;28;20231;-79
2021/10/11 08:42:33;;;;;;;5.47;4.97;;;;;;;;;;4996753;28;20678;-79
2021/10/11 08:45:00;;;;;;;5.57;5.00;;;;;;;;;;4996265;28;20204;-82
2021/10/11 08:47:27;;;;;;;5.82;5.32;;;;;;;;;;4996298;28;20710;-81
2021/10/11 08:49:56;;;;;;;5.60;5.07;;;;;;;;;;4996066;28;20204;-80
2021/10/11 08:52:24;;;;;;;6.75;6.13;;;;;;;;;;4997316;28;20259;-80
2021/10/11 08:54:52;;;;;;;5.20;4.80;;;;;;;;;;4998026;28;20210;-81
2021/10/11 08:57:22;;;;;;;5.18;4.68;;;;;;;;;;4997468;28;20223;-81
2021/10/11 08:59:50;;;;;;;5.68;5.18;;;;;;;;;;4997239;28;20318;-81
2021/10/11 09:02:20;;;;;;;6.03;5.53;;;;;;;;;;4997089;28;20192;-81
2021/10/11 09:04:51;;;;;;;6.10;5.60;;;;;;;;;;4997761;28;20207;-80
2021/10/11 09:07:23;;;;;;;6.57;5.88;;;;;;;;;;4997418;28;20258;-80
2021/10/11 09:09:53;;;;;;;5.88;4.97;;;;;;;;;;4997294;28;20262;-81
2021/10/11 09:12:22;;;;;;;5.28;4.78;;;;;;;;;;4997534;28;20218;-81
2021/10/11 09:15:04;;;;;;;5.72;5.28;;;;;;;;;;4997474;28;20576;-81
2021/10/11 09:17:35;;;;;;;6.22;5.63;;;;;;;;;;4997237;28;20234;-81
2021/10/11 09:20:10;;;;;;;7.75;7.05;;;;;;;;;;4997163;28;20211;-81
2021/10/11 09:22:41;;;;;;;8.77;7.90;;;;;;;;;;4997591;28;20726;-80
2021/10/11 09:25:09;;;;;;;8.38;7.57;;;;;;;;;;4997073;28;20198;-81
2021/10/11 09:27:46;;;;;;;9.27;7.55;;;;;;;;;;4996746;28;20227;-81
2021/10/11 09:30:15;;;;;;;10.07;8.60;;;;;;;;;;4995979;28;20199;-81
2021/10/11 09:32:43;;;;;;;8.43;7.63;;;;;;;;;;4997018;28;20215;-81
2021/10/11 09:35:15;;;;;;;9.18;8.27;;;;;;;;;;4995948;28;20589;-82
2021/10/11 09:37:51;;;;;;;8.77;7.90;;;;;;;;;;4996648;28;20220;-81
2021/10/11 09:40:21;;;;;;;8.15;7.35;;;;;;;;;;4996630;28;20227;-81
2021/10/11 09:42:49;;;;;;;8.13;7.35;;;;;;;;;;4996738;28;20581;-81
2021/10/11 09:45:22;;;;;;;9.52;8.63;;;;;;;;;;4996597;28;20290;-81
2021/10/11 09:47:50;;;;;;;6.97;6.15;;;;;;;;;;4996873;28;20230;-81
2021/10/11 09:50:18;;;;;;;5.90;5.30;;;;;;;;;;4995975;28;20200;-81
2021/10/11 09:52:47;;;;;;;5.50;4.97;;;;;;;;;;4995988;28;20223;-81
2021/10/11 09:55:15;;;;;;;6.60;5.93;;;;;;;;;;4995782;28;20219;-82
2021/10/11 09:57:43;;;;;;;7.10;5.93;;;;;;;;;;4996267;28;20232;-82
2021/10/11 10:00:12;;;;;;;8.40;7.45;;;;;;;;;;4995815;28;20235;-81
2021/10/11 10:02:41;;;;;;;10.65;8.02;;;;;;;;;;4996026;28;20200;-81
2021/10/11 10:05:12;;;;;;;11.15;10.07;;;;;;;;;;4996338;28;20588;-81
2021/10/11 10:07:47;;;;;;;12.65;9.80;;;;;;;;;;4996201;28;20220;-81
2021/10/11 10:10:17;;;;;;;9.73;8.80;;;;;;;;;;4996471;28;20578;-81
2021/10/11 10:12:45;;;;;;;10.00;9.10;;;;;;;;;;4996673;28;20204;-80
2021/10/11 10:15:13;;;;;;;9.23;8.32;;;;;;;;;;4997050;28;20294;-81
2021/10/11 10:17:41;;;;;;;11.13;9.88;;;;;;;;;;4996362;28;20622;-80
2021/10/11 10:20:13;;;;;;;8.48;7.63;;;;;;;;;;4996666;28;20200;-80
2021/10/11 10:22:52;;;;;;;8.65;6.90;;;;;;;;;;4996700;28;20222;-79
2021/10/11 10:25:20;;;;;;;9.27;8.35;;;;;;;;;;4996848;28;20214;-80
2021/10/11 10:27:50;;;;;;;8.00;7.15;;;;;;;;;;4996861;28;20615;-80
2021/10/11 10:30:21;;;;;;;9.60;8.70;;;;;;;;;;4997113;28;20554;-81
2021/10/11 10:32:57;;;;;;;6.80;6.20;;;;;;;;;;4996223;28;20204;-80
2021/10/11 10:35:25;;;;;;;8.70;7.70;;;;;;;;;;4996283;28;20211;-81
2021/10/11 10:37:54;;;;;;;10.73;9.63;;;;;;;;;;4995504;28;20227;-81
2021/10/11 10:40:24;;;;;;;8.05;7.25;;;;;;;;;;4995444;28;20207;-80
2021/10/11 10:43:02;;;;;;;12.20;9.60;;;;;;;;;;4995213;28;20218;-80
2021/10/11 10:45:32;;;;;;;9.25;8.20;;;;;;;;;;4995194;28;20286;-80
2021/10/11 10:48:00;;;;;;;9.02;7.22;;;;;;;;;;4994664;28;20224;-80
2021/10/11 10:50:28;;;;;;;10.77;9.75;;;;;;;;;;4994984;28;20577;-80
2021/10/11 10:53:00;;;;;;;12.48;10.88;;;;;;;;;;4994372;28;20247;-80
2021/10/11 10:55:28;;;;;;;10.55;9.48;;;;;;;;;;4994804;28;20286;-80
2021/10/11 10:58:00;;;;;;;9.70;8.70;;;;;;;;;;4993875;28;20790;-80
2021/10/11 11:00:27;;;;;;;8.00;7.13;;;;;;;;;;4993741;28;20199;-81
2021/10/11 11:02:55;;;;;;;7.80;6.90;;;;;;;;;;4994141;28;20207;-80
2021/10/11 11:05:24;;;;;;;11.70;10.45;;;;;;;;;;4994215;28;20229;-81
2021/10/11 11:07:53;;;;;;;7.85;7.05;;;;;;;;;;4994616;28;20602;-81
2021/10/11 11:10:24;;;;;;;10.30;8.98;;;;;;;;;;4993908;28;20199;-81
2021/10/11 11:12:54;;;;;;;10.43;9.32;;;;;;;;;;4994069;28;20211;-80
2021/10/11 11:15:30;;;;;;;9.30;8.30;;;;;;;;;;4994080;28;20203;-81
2021/10/11 11:17:59;;;;;;;9.10;8.18;;;;;;;;;;4993834;28;20223;-81
2021/10/11 11:20:29;;;;;;;11.98;8.10;;;;;;;;;;4993744;28;20206;-80
2021/10/11 11:23:02;;;;;;;7.63;5.93;;;;;;;;;;4993775;28;20206;-81
2021/10/11 11:25:34;;;;;;;6.25;5.68;;;;;;;;;;4993315;28;20218;-81
2021/10/11 11:28:04;;;;;;;4.57;3.33;;;;;;;;;;4993528;28;20230;-81
2021/10/11 11:30:31;;;;;;;3.85;2.95;;;;;;;;;;4993449;28;20203;-81
2021/10/11 11:33:03;;;;;;;3.85;3.10;;;;;;;;;;4993386;28;20713;-80
2021/10/11 11:35:33;;;;;;;9.60;3.38;;;;;;;;;;4992988;28;20575;-81
2021/10/11 11:38:02;;;;;;;3.90;2.97;;;;;;;;;;4993213;28;20227;-81
2021/10/11 11:40:35;;;;;;;5.10;3.45;;;;;;;;;;4993351;28;20204;-80
2021/10/11 11:43:05;;;;;;;5.25;2.47;;;;;;;;;;4993644;28;20502;-81
2021/10/11 11:45:42;;;;;;;4.53;2.40;;;;;;;;;;4993212;28;20203;-81
2021/10/11 11:48:11;;;;;;;4.57;3.17;;;;;;;;;;4993084;28;20227;-81
2021/10/11 11:50:40;;;;;;;2.95;2.20;;;;;;;;;;4992886;28;20854;-81
2021/10/11 11:53:12;;;;;;;5.07;2.88;;;;;;;;;;4993573;28;20257;-80
2021/10/11 11:55:42;;;;;;;4.65;2.92;;;;;;;;;;4997642;28;20206;-81
2021/10/11 11:58:13;;;;;;;3.35;2.33;;;;;;;;;;4997568;28;20310;-81
2021/10/11 12:00:42;;;;;;;3.53;2.55;;;;;;;;;;4996810;28;20579;-80
2021/10/11 12:03:11;;;;;;;2.97;2.20;;;;;;;;;;4997076;28;20697;-81
2021/10/11 12:05:39;;;;;;;13.25;2.75;;;;;;;;;;4996830;28;20666;-81
2021/10/11 12:08:08;;;;;;;5.25;2.33;;;;;;;;;;4997110;28;20231;-80
2021/10/11 12:10:36;;;;;;;2.75;2.40;;;;;;;;;;4996657;28;20211;-81
2021/10/11 12:13:06;;;;;;;4.32;2.70;;;;;;;;;;4996926;28;20210;-81
2021/10/11 12:15:34;;;;;;;4.78;2.35;;;;;;;;;;4996765;28;20212;-81
2021/10/11 12:18:07;;;;;;;4.97;2.40;;;;;;;;;;4996621;28;20220;-81
2021/10/11 12:20:47;;;;;;;3.72;2.63;;;;;;;;;;4996787;28;20210;-81
2021/10/11 12:23:16;;;;;;;4.00;2.58;;;;;;;;;;4997090;28;20227;-81
2021/10/11 12:25:45;;;;;;;4.13;2.78;;;;;;;;;;4996257;28;20689;-81
2021/10/11 12:28:16;;;;;;;5.95;2.70;;;;;;;;;;4997361;28;20800;-81
2021/10/11 12:30:47;;;;;;;2.95;2.75;;;;;;;;;;4997150;28;20199;-81
2021/10/11 12:33:16;;;;;;;4.13;2.38;;;;;;;;;;4996854;28;20211;-81
2021/10/11 12:35:46;;;;;;;4.18;2.60;;;;;;;;;;4996338;28;20737;-81
2021/10/11 12:38:15;;;;;;;3.88;1.88;;;;;;;;;;4997131;28;20231;-80
2021/10/11 12:40:44;;;;;;;3.15;1.80;;;;;;;;;;4997124;28;20688;-81
2021/10/11 12:43:20;;;;;;;7.00;2.47;;;;;;;;;;4996441;28;20224;-81
2021/10/11 12:45:48;;;;;;;2.58;1.90;;;;;;;;;;4996035;28;20223;-81
2021/10/11 12:48:16;;;;;;;8.23;2.20;;;;;;;;;;4996029;28;20314;-81
2021/10/11 12:50:54;;;;;;;1.55;1.45;;;;;;;;;;4996200;28;20200;-81
2021/10/11 12:53:28;;;;;;;2.63;1.85;;;;;;;;;;4995839;28;20207;-81
2021/10/11 12:55:55;;;;;;;2.88;2.10;;;;;;;;;;4995860;28;20208;-81
2021/10/11 12:58:26;;;;;;;4.35;2.03;;;;;;;;;;4996220;28;20219;-80
2021/10/11 13:00:54;;;;;;;5.28;2.22;;;;;;;;;;4995735;28;20227;-80
2021/10/11 13:03:22;;;;;;;3.95;1.73;;;;;;;;;;4995083;28;20220;-80
2021/10/11 13:05:52;;;;;;;2.38;1.70;;;;;;;;;;4994485;28;20208;-80
2021/10/11 13:08:19;;;;;;;4.55;2.20;;;;;;;;;;4995739;28;20579;-81
2021/10/11 13:10:47;;;;;;;4.72;3.05;;;;;;;;;;4995785;28;20203;-81
2021/10/11 13:13:14;;;;;;;2.08;1.45;;;;;;;;;;4995357;28;20203;-81
2021/10/11 13:15:43;;;;;;;2.17;1.98;;;;;;;;;;4995076;28;20199;-81
2021/10/11 13:18:10;;;;;;;1.85;1.40;;;;;;;;;;4995083;28;20219;-80
2021/10/11 13:20:38;;;;;;;3.60;1.80;;;;;;;;;;4995455;28;20210;-81
2021/10/11 13:23:05;;;;;;;2.92;1.92;;;;;;;;;;4995366;28;20214;-80
2021/10/11 13:25:33;;;;;;;4.60;2.10;;;;;;;;;;4995587;28;20207;-80
2021/10/11 13:28:02;;;;;;;3.40;1.70;;;;;;;;;;4995246;28;20231;-81
2021/10/11 13:30:58;;;;;;;3.50;1.90;;;;;;;;;;4994905;28;20307;-81
2021/10/11 13:36:40;;;;;;;3.88;1.63;;;;;;;;;;4995229;28;20206;-80
2021/10/11 14:28:42;;;;;;;3.63;2.15;;;;;;;;;;4993839;28;20226;-81
2021/10/11 14:31:20;;;;;;;3.67;1.80;;;;;;;;;;4994432;28;20223;-81
2021/10/11 15:59:25;;;;;;;1.75;1.27;;;;;;;;;;4997249;28;20318;-81
2021/10/11 16:02:05;;;;;;;2.22;1.30;;;;;;;;;;4997160;28;20207;-81
2021/10/11 16:04:33;;;;;;;4.85;1.77;;;;;;;;;;4997225;28;20250;-81
2021/10/11 16:07:04;;;;;;;3.53;1.50;;;;;;;;;;4997084;28;20214;-81
2021/10/11 16:09:32;;;;;;;1.35;1.23;;;;;;;;;;4997529;28;20212;-81
2021/10/11 16:11:59;;;;;;;2.75;1.98;;;;;;;;;;4997491;28;20200;-81
2021/10/11 16:14:27;;;;;;;2.25;1.38;;;;;;;;;;4997430;28;20231;-82
2021/10/11 16:16:55;;;;;;;1.38;1.10;;;;;;;;;;4997396;28;20579;-82
2021/10/11 16:19:23;;;;;;;1.30;1.20;;;;;;;;;;4996989;28;20204;-82
2021/10/11 16:21:50;;;;;;;1.73;1.08;;;;;;;;;;4996369;28;20290;-81
2021/10/11 16:24:19;;;;;;;1.73;1.10;;;;;;;;;;4996545;28;20211;-81
2021/10/11 16:26:50;;;;;;;1.27;1.17;;;;;;;;;;4995872;28;20255;-81
2021/10/11 16:29:18;;;;;;;2.75;1.15;;;;;;;;;;4996176;28;20204;-81
2021/10/11 16:31:48;;;;;;;1.77;0.90;;;;;;;;;;4996249;28;20203;-81
2021/10/11 16:34:21;;;;;;;2.85;1.23;;;;;;;;;;4997438;28;20224;-81
2021/10/11 16:36:48;;;;;;;1.42;1.33;;;;;;;;;;4997573;28;20204;-81
2021/10/11 16:39:16;;;;;;;1.60;1.10;;;;;;;;;;4996564;28;20566;-80
2021/10/11 16:41:43;;;;;;;2.17;1.40;;;;;;;;;;4996660;28;20734;-80
2021/10/11 16:44:12;;;;;;;3.70;1.33;;;;;;;;;;4996812;28;20195;-81
2021/10/11 16:46:43;;;;;;;1.70;1.30;;;;;;;;;;4996914;28;20208;-82
2021/10/11 16:49:10;;;;;;;2.58;1.52;;;;;;;;;;4996559;28;20472;-81
2021/10/11 16:51:39;;;;;;;1.40;1.02;;;;;;;;;;4996133;28;20224;-81
2021/10/11 16:56:54;;;;;;;1.80;1.20;;;;;;;;;;4989217;28;20254;-82
2021/10/11 16:59:21;;;;;;;3.22;1.80;;;;;;;;;;4996693;28;20208;-81
2021/10/11 17:01:49;;;;;;;2.03;1.35;;;;;;;;;;4996840;28;20207;-82
2021/10/11 17:04:17;;;;;;;2.55;1.40;;;;;;;;;;4995968;28;20204;-81
2021/10/11 17:06:45;;;;;;;1.85;1.20;;;;;;;;;;4996242;28;20212;-84
2021/10/11 17:09:13;;;;;;;1.88;1.27;;;;;;;;;;4996296;28;20215;-84
2021/10/11 17:11:41;;;;;;;2.45;1.35;;;;;;;;;;4997379;28;20242;-85
2021/10/11 17:14:08;;;;;;;2.05;1.33;;;;;;;;;;4998205;28;20220;-86